Bretz, West Virginia
Current Conditions -  °F | °C
As of 11:53 AM on Thursday 23 Oct 2014 (Local Time) from KMGW Reporting Station
Overcast Overcast  
Wind Chill: 52°   Ceiling: 2100
Heat Index: 52°   Visibility: 10mi
Dew Point: 41°   Wind: 5mph
Humidity: 66%   Direction: 270°W
Pressure: 30.14"   Gusts: NA
Location:  39.54°N, 79.8°W
Report Text: KMGW 231553Z 27004KT 10SM BKN021 OVC027 11/05 A3014 RMK AO2 SLP207 T01110050
Loading
Personal Weather Stations






























Interactive Weather Map
Tropical Storm Tracking
New forecast layout! Learn more

10-Day Weather Forecast

Advertisements
Track Severe Weather on mobile